createdAt,value
2018-12-09T00:04:00.144Z,9.28
2018-12-09T00:09:02.919Z,9.56
2018-12-09T00:14:05.505Z,9.35
2018-12-09T00:19:08.865Z,8.84
2018-12-09T00:24:11.474Z,8.80
2018-12-09T00:29:14.055Z,8.66
2018-12-09T00:34:16.608Z,8.61
2018-12-09T00:39:20.097Z,8.69
2018-12-09T00:44:22.658Z,8.54
2018-12-09T00:49:25.184Z,8.38
2018-12-09T00:54:27.826Z,8.73
2018-12-09T00:59:30.433Z,8.59
2018-12-09T01:04:33.026Z,8.87
2018-12-09T01:09:36.746Z,8.73
2018-12-09T01:14:39.284Z,8.63
2018-12-09T01:19:41.937Z,9.12
2018-12-09T01:24:44.577Z,9.33
2018-12-09T01:29:47.160Z,9.28
2018-12-09T01:34:49.827Z,9.40
2018-12-09T01:39:52.376Z,9.41
2018-12-09T01:44:55.725Z,9.62
2018-12-09T01:49:59.078Z,9.75
2018-12-09T01:55:02.515Z,9.70
2018-12-09T02:00:05.453Z,9.71
2018-12-09T02:05:08.786Z,9.78
2018-12-09T02:10:11.969Z,9.75
2018-12-09T02:15:14.598Z,9.77
2018-12-09T02:20:17.861Z,9.83
2018-12-09T02:25:21.117Z,9.81
2018-12-09T02:30:23.816Z,9.80
2018-12-09T02:35:26.372Z,9.79
2018-12-09T02:40:29.603Z,9.87
2018-12-09T02:45:32.153Z,9.80
2018-12-09T02:50:34.911Z,10.05
2018-12-09T02:55:38.819Z,10.08
2018-12-09T03:00:41.445Z,10.01
2018-12-09T03:05:44.155Z,10.06
2018-12-09T03:10:46.852Z,10.00
2018-12-09T03:15:49.830Z,9.87
2018-12-09T03:20:52.496Z,9.88
2018-12-09T03:25:55.614Z,9.78
2018-12-09T03:30:58.223Z,9.79
2018-12-09T03:36:01.092Z,9.83
2018-12-09T03:41:03.733Z,9.78
2018-12-09T03:46:06.297Z,9.78
2018-12-09T03:51:08.989Z,9.84
2018-12-09T03:56:11.880Z,9.94
2018-12-09T04:01:14.617Z,9.94
2018-12-09T04:06:17.797Z,10.05
2018-12-09T04:11:20.628Z,10.04
2018-12-09T04:16:23.495Z,10.06
2018-12-09T04:21:26.048Z,9.75
2018-12-09T04:26:28.616Z,9.58
2018-12-09T04:31:31.164Z,9.39
2018-12-09T04:36:34.525Z,9.33
2018-12-09T04:41:37.075Z,9.52
2018-12-09T04:46:39.648Z,9.50
2018-12-09T04:51:57.152Z,9.49
2018-12-09T04:56:59.829Z,9.45
2018-12-09T05:02:02.886Z,9.37
2018-12-09T05:07:05.455Z,9.44
2018-12-09T05:12:09.146Z,9.12
2018-12-09T05:17:11.706Z,8.95
2018-12-09T05:22:14.613Z,9.05
2018-12-09T05:27:17.744Z,9.15
2018-12-09T05:32:20.684Z,9.11
2018-12-09T05:37:23.270Z,9.02
2018-12-09T05:42:26.402Z,9.10
2018-12-09T05:47:29.207Z,9.03
2018-12-09T05:52:32.006Z,8.99
2018-12-09T05:57:35.057Z,8.99
2018-12-09T06:02:50.591Z,8.73
2018-12-09T06:07:53.168Z,8.56
2018-12-09T06:12:55.759Z,8.77
2018-12-09T06:17:58.387Z,8.78
2018-12-09T06:23:00.953Z,8.67
2018-12-09T06:28:03.520Z,8.71
2018-12-09T06:33:06.089Z,8.65
2018-12-09T06:38:08.680Z,8.46
2018-12-09T06:43:11.260Z,8.47
2018-12-09T06:48:13.930Z,8.52
2018-12-09T06:53:16.543Z,8.46
2018-12-09T06:58:19.092Z,8.58
2018-12-09T07:03:21.714Z,8.27
2018-12-09T07:08:24.272Z,8.19
2018-12-09T07:13:26.848Z,8.52
2018-12-09T07:18:29.445Z,8.30
2018-12-09T07:23:32.061Z,8.49
2018-12-09T07:28:34.758Z,8.58
2018-12-09T07:33:37.542Z,8.75
2018-12-09T07:38:40.153Z,8.66
2018-12-09T07:43:42.730Z,8.66
2018-12-09T07:48:45.347Z,8.65
2018-12-09T07:53:48.782Z,8.77
2018-12-09T07:58:51.389Z,8.75
2018-12-09T08:03:53.968Z,8.77
2018-12-09T08:08:56.988Z,8.91
2018-12-09T08:13:59.796Z,8.89
2018-12-09T08:19:02.332Z,8.85
2018-12-09T08:24:05.320Z,8.96
2018-12-09T08:29:09.352Z,8.77
2018-12-09T08:34:11.927Z,8.87
2018-12-09T08:39:14.760Z,8.89
2018-12-09T08:44:17.364Z,8.75
2018-12-09T08:49:20.097Z,9.04
2018-12-09T08:54:22.739Z,9.02
2018-12-09T08:59:25.395Z,9.14
2018-12-09T09:04:28.042Z,9.05
2018-12-09T09:09:30.841Z,9.05
2018-12-09T09:14:33.493Z,9.18
2018-12-09T09:19:36.090Z,9.10
2018-12-09T09:24:38.665Z,9.04
2018-12-09T09:29:42.021Z,9.11
2018-12-09T09:34:45.239Z,9.09
2018-12-09T09:39:47.830Z,9.14
2018-12-09T09:44:51.024Z,9.29
2018-12-09T09:49:53.629Z,9.22
2018-12-09T09:54:57.094Z,9.43
2018-12-09T10:00:00.050Z,9.23
2018-12-09T10:05:02.752Z,9.33
2018-12-09T10:10:05.995Z,9.41
2018-12-09T10:15:08.670Z,9.59
2018-12-09T10:20:11.292Z,9.65
2018-12-09T10:25:13.888Z,9.82
2018-12-09T10:30:16.738Z,9.84
2018-12-09T10:35:19.289Z,9.63
2018-12-09T10:40:21.944Z,9.79
2018-12-09T10:45:25.220Z,9.93
2018-12-09T10:50:27.780Z,9.96
2018-12-09T10:55:30.358Z,9.99
2018-12-09T11:00:38.742Z,10.08
2018-12-09T11:05:41.315Z,10.16
2018-12-09T11:10:44.116Z,10.20
2018-12-09T11:15:47.399Z,10.02
2018-12-09T11:20:49.999Z,10.20
2018-12-09T11:25:52.557Z,10.28
2018-12-09T11:30:55.106Z,10.42
2018-12-09T11:35:57.733Z,10.51
2018-12-09T11:41:01.115Z,10.30
2018-12-09T11:46:03.662Z,10.31
2018-12-09T11:51:06.272Z,10.32
2018-12-09T11:56:08.860Z,10.14
2018-12-09T12:01:12.125Z,10.19
2018-12-09T12:06:14.737Z,10.12
2018-12-09T12:11:17.299Z,10.14
2018-12-09T12:16:19.873Z,10.06
2018-12-09T12:21:22.470Z,9.95
2018-12-09T12:26:25.042Z,9.89
2018-12-09T12:31:27.584Z,9.63
2018-12-09T12:36:30.212Z,9.90
2018-12-09T12:41:32.877Z,9.69
2018-12-09T12:46:35.565Z,9.34
2018-12-09T12:51:38.401Z,9.46
2018-12-09T12:56:41.921Z,9.23
2018-12-09T13:01:44.624Z,9.24
2018-12-09T13:06:47.224Z,9.21
2018-12-09T13:11:49.987Z,9.34
2018-12-09T13:16:53.370Z,9.23
2018-12-09T13:21:55.976Z,9.39
2018-12-09T13:26:58.624Z,9.20
2018-12-09T13:32:01.316Z,9.37
2018-12-09T13:37:03.924Z,9.28
2018-12-09T13:42:06.561Z,9.34
2018-12-09T13:47:09.130Z,9.33
2018-12-09T13:52:11.795Z,9.39
2018-12-09T13:57:14.380Z,9.39
2018-12-09T14:02:18.052Z,8.74
2018-12-09T14:07:20.641Z,8.32
2018-12-09T14:12:23.181Z,8.57
2018-12-09T14:17:25.748Z,8.21
2018-12-09T14:22:28.321Z,8.29
2018-12-09T14:27:30.901Z,8.07
2018-12-09T14:32:33.638Z,8.10
2018-12-09T14:37:36.249Z,8.31
2018-12-09T14:42:39.130Z,8.29
2018-12-09T14:47:41.666Z,8.66
2018-12-09T14:52:44.575Z,8.52
2018-12-09T14:57:47.128Z,8.29
2018-12-09T15:02:49.766Z,8.56
2018-12-09T15:07:52.329Z,8.55
2018-12-09T15:12:54.938Z,8.43
2018-12-09T15:17:57.579Z,8.43
2018-12-09T15:23:00.319Z,8.63
2018-12-09T15:28:03.746Z,8.50
2018-12-09T15:33:06.434Z,8.66
2018-12-09T15:38:09.004Z,8.62
2018-12-09T15:43:11.576Z,8.61
2018-12-09T15:48:14.567Z,8.47
2018-12-09T15:53:17.121Z,8.22
2018-12-09T15:58:20.124Z,8.28
2018-12-09T16:03:22.885Z,8.34
2018-12-09T16:08:25.416Z,8.41
2018-12-09T16:13:28.176Z,8.23
2018-12-09T16:18:30.809Z,8.55
2018-12-09T16:23:33.376Z,8.64
2018-12-09T16:28:35.916Z,8.70
2018-12-09T16:33:39.189Z,8.61
2018-12-09T16:38:42.486Z,8.68
2018-12-09T16:43:45.765Z,8.36
2018-12-09T16:48:48.357Z,8.35
2018-12-09T16:53:50.957Z,8.54
2018-12-09T16:58:53.651Z,8.56
2018-12-09T17:03:56.234Z,8.39
2018-12-09T17:08:58.873Z,8.42
2018-12-09T17:14:01.433Z,8.37
2018-12-09T17:19:04.091Z,8.17
2018-12-09T17:24:06.695Z,8.64
2018-12-09T17:29:10.072Z,8.27
2018-12-09T17:34:12.660Z,8.20
2018-12-09T17:39:15.972Z,8.37
2018-12-09T17:44:18.565Z,8.23
2018-12-09T17:49:21.296Z,8.29
2018-12-09T17:54:24.530Z,8.47
2018-12-09T17:59:27.087Z,8.33
2018-12-09T18:04:29.786Z,8.53
2018-12-09T18:09:32.328Z,8.40
2018-12-09T18:14:34.917Z,8.14
2018-12-09T18:19:37.590Z,8.18
2018-12-09T18:24:40.248Z,8.17
2018-12-09T18:29:42.875Z,8.06
2018-12-09T18:34:46.716Z,8.04
2018-12-09T18:39:49.770Z,8.18
2018-12-09T18:44:52.869Z,8.10
2018-12-09T18:49:56.179Z,8.10
2018-12-09T18:54:59.268Z,8.12
2018-12-09T19:00:02.598Z,8.03
2018-12-09T19:05:07.160Z,8.36
2018-12-09T19:10:10.404Z,8.39
2018-12-09T19:15:13.861Z,8.04
2018-12-09T19:20:17.660Z,8.02
2018-12-09T19:25:20.711Z,8.11
2018-12-09T19:30:24.518Z,7.93
2018-12-09T19:35:27.271Z,8.05
2018-12-09T19:40:30.836Z,7.80
2018-12-09T19:45:33.738Z,8.22
2018-12-09T19:50:38.268Z,8.05
2018-12-09T19:55:41.602Z,8.15
2018-12-09T20:00:44.691Z,8.16
2018-12-09T20:05:47.701Z,7.78
2018-12-09T20:10:51.524Z,7.65
2018-12-09T20:15:54.138Z,7.54
2018-12-09T20:20:56.850Z,7.70
2018-12-09T20:25:59.882Z,7.56
2018-12-09T20:31:03.216Z,7.71
2018-12-09T20:36:05.781Z,7.62
2018-12-09T20:41:09.023Z,7.80
2018-12-09T20:46:11.592Z,7.53
2018-12-09T20:51:14.556Z,7.36
2018-12-09T20:56:17.182Z,7.30
2018-12-09T21:01:19.765Z,7.39
2018-12-09T21:06:22.495Z,7.09
2018-12-09T21:11:25.138Z,7.03
2018-12-09T21:16:27.713Z,7.13
2018-12-09T21:21:30.280Z,6.27
2018-12-09T21:26:33.007Z,6.27
2018-12-09T21:31:37.619Z,6.35
2018-12-09T21:36:40.169Z,6.57
2018-12-09T21:41:42.703Z,6.87
2018-12-09T21:46:45.275Z,6.82
2018-12-09T21:51:47.833Z,6.95
2018-12-09T21:56:50.727Z,7.02
2018-12-09T22:01:53.315Z,7.17
2018-12-09T22:06:56.732Z,7.38
2018-12-09T22:11:59.309Z,7.26
2018-12-09T22:17:01.984Z,7.35
2018-12-09T22:22:04.895Z,7.42
2018-12-09T22:27:08.426Z,7.53
2018-12-09T22:32:11.087Z,7.49
2018-12-09T22:37:13.873Z,7.53
2018-12-09T22:42:17.086Z,7.34
2018-12-09T22:47:19.738Z,7.27
2018-12-09T22:52:22.304Z,7.14
2018-12-09T22:57:24.926Z,7.43
2018-12-09T23:02:33.132Z,7.03
2018-12-09T23:07:41.160Z,7.17
2018-12-09T23:12:43.825Z,7.13
2018-12-09T23:17:46.406Z,7.33
2018-12-09T23:22:49.626Z,7.41
2018-12-09T23:27:52.216Z,7.20
2018-12-09T23:32:54.813Z,7.32
2018-12-09T23:37:57.421Z,7.39
2018-12-09T23:43:00.010Z,7.12
2018-12-09T23:48:03.556Z,7.06
2018-12-09T23:53:06.323Z,7.11
2018-12-09T23:58:08.899Z,7.15
